ADDS METAR Data INFO
IDs: Format: Raw Decoded Include TAF

Data at: 0303 UTC 21 Oct 2017

KTIF 210255Z AUTO 17019G22KT 10SM CLR 20/12 A2949 RMK AO2 T01960118
KTIF 210235Z AUTO 17016G21KT 10SM CLR 20/12 A2949 RMK AO2 T01970115
KTIF 210215Z AUTO 16015KT 10SM CLR 20/11 A2949 RMK AO2 T01990113
KTIF 210155Z AUTO 16011G15KT 10SM CLR 20/11 A2949 RMK AO2 T02010112
KTIF 210135Z AUTO 17012G19KT 10SM CLR 21/11 A2950 RMK AO2 T02050113
KTIF 210115Z AUTO 17011G15KT 10SM CLR 20/11 A2951 RMK AO2 T02030113
KTIF 210055Z AUTO 16008KT 10SM CLR 20/11 A2951 RMK AO2 T01950111
KTIF 210035Z AUTO 16005KT 10SM CLR 19/11 A2951 RMK AO2 T01860107
KTIF 210015Z AUTO 16006KT 10SM CLR 20/11 A2950 RMK AO2 T01990107
KTIF 202355Z AUTO 17008KT 10SM CLR 22/11 A2950 RMK AO2 T02170107 10240 20209
KTIF 202335Z AUTO 18011G17KT 10SM CLR 23/11 A2949 RMK AO2 T02280105
KTIF 202315Z AUTO 18015G22KT 10SM CLR 23/10 A2950 RMK AO2 T02330100
KTIF 202255Z AUTO 18018G25KT 10SM CLR 24/10 A2950 RMK AO2 T02360101
KTIF 202235Z AUTO 17016G21KT 10SM CLR 24/10 A2951 RMK AO2 T02380104
KTIF 202215Z AUTO 18014G19KT 10SM CLR 24/11 A2951 RMK AO2 T02360107
KTIF 202155Z AUTO 18018G24KT 10SM CLR 23/11 A2952 RMK AO2 T02320109
KTIF 202135Z AUTO 18018G25KT 10SM CLR 23/11 A2953 RMK AO2 T02270110
KTIF 202115Z AUTO 17015G25KT 10SM CLR 23/11 A2953 RMK AO2 T02280110
KTIF 202055Z AUTO 17018G25KT 10SM CLR 23/11 A2955 RMK AO2 T02300110
KTIF 202035Z AUTO 18019G27KT 10SM CLR 22/11 A2955 RMK AO2 T02220114
KTIF 202015Z AUTO 16019G27KT 10SM SCT042 22/11 A2956 RMK AO2 T02230114
KTIF 201955Z AUTO 17019G27KT 10SM SCT042 22/11 A2957 RMK AO2 T02230112
KTIF 201935Z AUTO 17020G25KT 10SM CLR 21/11 A2958 RMK AO2 T02130111
KTIF 201915Z AUTO 17018G24KT 10SM CLR 23/11 A2958 RMK AO2 T02250110
KTIF 201855Z AUTO 17019G26KT 10SM CLR 22/11 A2958 RMK AO2 T02200106
KTIF 201835Z AUTO 16020G25KT 10SM CLR 22/11 A2959 RMK AO2 T02190105
KTIF 201815Z AUTO 16016G23KT 10SM CLR 21/11 A2961 RMK AO2 T02140106
KTIF 201755Z AUTO 16013G20KT 10SM CLR 21/11 A2962 RMK AO2 T02130109 10217 20125
KTIF 201735Z AUTO 17018KT 10SM CLR 21/11 A2964 RMK AO2 T02080113
KTIF 201715Z AUTO 18017G21KT 10SM CLR 20/11 A2965 RMK AO2 T02000110
KTIF 201655Z AUTO 16015G19KT 10SM CLR 18/11 A2966 RMK AO2 T01840110
KTIF 201635Z AUTO 18017G22KT 10SM CLR 19/11 A2968 RMK AO2 T01900110
KTIF 201615Z AUTO 18016G23KT 10SM CLR 19/11 A2969 RMK AO2 T01850107
KTIF 201555Z AUTO 19019G24KT 10SM CLR 17/10 A2969 RMK AO2 T01680104
KTIF 201535Z AUTO 18018G21KT 10SM CLR 16/10 A2971 RMK AO2 T01620100
KTIF 201515Z AUTO 18015G23KT 10SM CLR 16/10 A2972 RMK AO2 T01550095
KTIF 201455Z AUTO 18018G25KT 10SM CLR 15/09 A2972 RMK AO2 T01510094
KTIF 201435Z AUTO 18014G21KT 10SM CLR 15/09 A2973 RMK AO2 T01490092
KTIF 201415Z AUTO 17015KT 10SM CLR 14/09 A2973 RMK AO2 T01400089
KTIF 201355Z AUTO 18014G21KT 10SM CLR 14/09 A2973 RMK AO2 T01400088
KTIF 201335Z AUTO 18015KT 10SM CLR 14/09 A2973 RMK AO2 T01400088
KTIF 201315Z AUTO 18012G17KT 10SM CLR 14/09 A2973 RMK AO2 T01350086
KTIF 201255Z AUTO 19011KT 10SM CLR 13/09 A2973 RMK AO2 T01310085
KTIF 201235Z AUTO 18010KT 10SM CLR 13/08 A2974 RMK AO2 T01290082
KTIF 201215Z AUTO 18010G14KT 10SM CLR 13/08 A2974 RMK AO2 T01250080
KTIF 201155Z AUTO 18008KT 10SM CLR 13/08 A2975 RMK AO2 T01250080 10176 20124
KTIF 201135Z AUTO 18009KT 10SM CLR 13/08 A2975 RMK AO2 T01250078
KTIF 201115Z AUTO 18006KT 10SM CLR 13/08 A2976 RMK AO2 T01250077
KTIF 201055Z AUTO 17007KT 10SM CLR 13/08 A2976 RMK AO2 T01250075
KTIF 201035Z AUTO 17009KT 10SM CLR 13/08 A2977 RMK AO2 T01300075
KTIF 201015Z AUTO 18009KT 10SM CLR 13/08 A2977 RMK AO2 T01300075
KTIF 200955Z AUTO 18009KT 10SM CLR 14/08 A2977 RMK AO2 T01350075
KTIF 200935Z AUTO 19008G14KT 10SM CLR 14/07 A2978 RMK AO2 T01370073
KTIF 200915Z AUTO 17009KT 10SM CLR 14/07 A2978 RMK AO2 T01420072
KTIF 200855Z AUTO 17012KT 10SM CLR 15/07 A2979 RMK AO2 T01470071
KTIF 200835Z AUTO 17011KT 10SM CLR 15/07 A2980 RMK AO2 T01480069
KTIF 200815Z AUTO 18010G15KT 10SM CLR 15/07 A2980 RMK AO2 T01510067
KTIF 200755Z AUTO 18008KT 10SM CLR 15/07 A2981 RMK AO2 T01530065
KTIF 200735Z AUTO 18007KT 10SM CLR 16/07 A2982 RMK AO2 T01550065
KTIF 200715Z AUTO 17008KT 10SM CLR 16/06 A2983 RMK AO2 T01620064
KTIF 200655Z AUTO 18008KT 10SM CLR 16/06 A2983 RMK AO2 T01630063
KTIF 200635Z AUTO 17007KT 10SM CLR 16/06 A2984 RMK AO2 T01630063
KTIF 200615Z AUTO 18009KT 10SM CLR 17/06 A2984 RMK AO2 T01710062
KTIF 200555Z AUTO 18013G18KT 10SM CLR 18/06 A2985 RMK AO2 T01770061 10216 20163 402750036
KTIF 200535Z AUTO 18013KT 10SM CLR 18/06 A2985 RMK AO2 T01770061
KTIF 200515Z AUTO 18012G16KT 10SM CLR 18/06 A2985 RMK AO2 T01810062
KTIF 200455Z AUTO 18011KT 10SM CLR 18/06 A2986 RMK AO2 T01840064
KTIF 200435Z AUTO 18012G16KT 10SM CLR 19/07 A2987 RMK AO2 T01850066
KTIF 200415Z AUTO 17010G15KT 10SM CLR 18/07 A2987 RMK AO2 T01760071
KTIF 200355Z AUTO 16009KT 10SM CLR 18/08 A2987 RMK AO2 T01760075
KTIF 200335Z AUTO 16009KT 10SM CLR 18/08 A2987 RMK AO2 T01760080
KTIF 200315Z AUTO 16009KT 10SM CLR 18/08 A2987 RMK AO2 T01780082
KTIF 200255Z AUTO 16008KT 10SM CLR 18/09 A2987 RMK AO2 T01760085
KTIF 200235Z AUTO 16008KT 10SM CLR 17/09 A2987 RMK AO2 T01680088
KTIF 200215Z AUTO 15008KT 10SM CLR 17/09 A2988 RMK AO2 T01660088
KTIF 200155Z AUTO 15009KT 10SM CLR 17/09 A2988 RMK AO2 T01700086
KTIF 200135Z AUTO 15009KT 10SM CLR 18/09 A2989 RMK AO2 T01790086
KTIF 200115Z AUTO 15010KT 10SM CLR 18/09 A2989 RMK AO2 T01840085
KTIF 200055Z AUTO 15009KT 10SM CLR 19/08 A2989 RMK AO2 T01850080
KTIF 200035Z AUTO 15009KT 10SM CLR 19/08 A2988 RMK AO2 T01900077
KTIF 200015Z AUTO 15009KT 10SM CLR 20/08 A2989 RMK AO2 T02020077
KTIF 192355Z AUTO 16009KT 10SM CLR 22/07 A2989 RMK AO2 T02170074 10275 20217
KTIF 192335Z AUTO 16010KT 10SM CLR 23/07 A2989 RMK AO2 T02320070
KTIF 192315Z AUTO 17010G20KT 10SM CLR 25/07 A2989 RMK AO2 T02500066
KTIF 192255Z AUTO 17013G22KT 10SM CLR 26/07 A2989 RMK AO2 T02570065
KTIF 192235Z AUTO 17013G20KT 10SM CLR 26/07 A2990 RMK AO2 T02610066
KTIF 192215Z AUTO 17017KT 10SM CLR 27/06 A2990 RMK AO2 T02680061
KTIF 192155Z AUTO 18016G19KT 10SM CLR 27/06 A2990 RMK AO2 T02730055
KTIF 192135Z AUTO 17016KT 10SM CLR 27/05 A2990 RMK AO2 T02730050
KTIF 192115Z AUTO 18010G19KT 10SM CLR 28/05 A2991 RMK AO2 T02750053
KTIF 192055Z AUTO 20013G20KT 10SM CLR 28/04 A2991 RMK AO2 T02750043
KTIF 192035Z AUTO 20012G21KT 10SM CLR 27/05 A2991 RMK AO2 T02700052
KTIF 192015Z AUTO 20013G18KT 10SM CLR 27/06 A2992 RMK AO2 T02720058
KTIF 191955Z AUTO 18012G20KT 10SM CLR 27/06 A2993 RMK AO2 T02650060
KTIF 191935Z AUTO 19013G18KT 10SM CLR 26/06 A2994 RMK AO2 T02570061
KTIF 191915Z AUTO 19015KT 10SM CLR 26/06 A2996 RMK AO2 T02590063
KTIF 191855Z AUTO 19015G19KT 10SM CLR 26/06 A2996 RMK AO2 T02550062
KTIF 191835Z AUTO 20012G17KT 10SM CLR 25/06 A2997 RMK AO2 T02520058
KTIF 191815Z AUTO 19014G18KT 10SM CLR 24/05 A2998 RMK AO2 T02440053
KTIF 191755Z AUTO 20011KT 10SM CLR 24/05 A2999 RMK AO2 T02380050 10239 20049
KTIF 191735Z AUTO 18011G16KT 10SM CLR 23/05 A3000 RMK AO2 T02280047
KTIF 191715Z AUTO 19012G18KT 10SM CLR 22/04 A3001 RMK AO2 T02170044
KTIF 191655Z AUTO 21012KT 10SM CLR 21/04 A3001 RMK AO2 T02100041
KTIF 191635Z AUTO 19015G20KT 10SM CLR 20/04 A3002 RMK AO2 T02000037
KTIF 191615Z AUTO 19014G23KT 10SM CLR 19/04 A3003 RMK AO2 T01910037
KTIF 191555Z AUTO 21011G20KT 10SM CLR 18/03 A3003 RMK AO2 T01780034
KTIF 191535Z AUTO 20015KT 10SM CLR 17/03 A3003 RMK AO2 T01680033
KTIF 191515Z AUTO 21016G20KT 10SM CLR 16/03 A3003 RMK AO2 T01590031